createdAt,value
2018-03-25T11:19:59.032Z,21.60
2018-03-25T11:22:33.712Z,19.80
2018-03-25T11:25:07.644Z,16.80
2018-03-25T11:27:41.894Z,15.50
2018-03-25T11:30:15.505Z,16.20
2018-03-25T11:32:49.346Z,16.40
2018-03-25T11:35:23.165Z,17.00
2018-03-25T11:37:56.867Z,17.30
2018-03-25T11:40:31.815Z,17.70
2018-03-25T11:43:05.977Z,17.70
2018-03-25T11:45:39.620Z,16.90
2018-03-25T11:48:14.169Z,17.30
2018-03-25T11:50:47.982Z,17.30
2018-03-25T11:53:21.791Z,18.10
2018-03-25T11:55:56.159Z,17.50
2018-03-25T11:58:29.996Z,18.00
2018-03-25T12:01:04.562Z,17.80
2018-03-25T12:03:39.214Z,16.90
2018-03-25T12:06:13.124Z,16.80
2018-03-25T12:08:47.690Z,15.30
2018-03-25T12:11:21.534Z,15.60
2018-03-25T12:13:55.337Z,16.30
2018-03-25T12:16:32.106Z,16.60
2018-03-25T12:19:05.964Z,16.60
2018-03-25T12:21:39.866Z,16.80
2018-03-25T12:24:15.410Z,18.10
2018-03-25T12:26:49.319Z,18.20
2018-03-25T12:29:23.155Z,16.00
2018-03-25T12:31:57.143Z,16.70
2018-03-25T12:34:31.029Z,16.40
2018-03-25T12:37:04.916Z,15.40
2018-03-25T12:39:38.740Z,17.10
2018-03-25T12:42:13.187Z,18.10
2018-03-25T12:44:46.990Z,18.10
2018-03-25T12:47:21.541Z,18.00
2018-03-25T12:49:56.109Z,18.00
2018-03-25T12:52:30.704Z,17.70
2018-03-25T12:55:04.665Z,17.70
2018-03-25T12:57:39.269Z,18.20
2018-03-25T13:00:14.071Z,18.20
2018-03-25T13:02:52.583Z,18.40
2018-03-25T13:05:27.396Z,18.40
2018-03-25T13:08:01.799Z,18.00
2018-03-25T13:10:35.732Z,18.00
2018-03-25T13:13:10.208Z,18.90
2018-03-25T13:15:44.136Z,19.10
2018-03-25T13:18:20.770Z,17.60
2018-03-25T13:21:06.619Z,17.60
2018-03-25T13:23:41.525Z,16.40
2018-03-25T13:26:15.641Z,17.50
2018-03-25T13:28:49.510Z,16.90
2018-03-25T13:31:25.125Z,16.80
2018-03-25T13:33:59.832Z,16.80
2018-03-25T13:36:34.244Z,17.10
2018-03-25T13:39:09.352Z,17.00
2018-03-25T13:41:43.515Z,17.00
2018-03-25T13:44:18.516Z,17.70
2018-03-25T13:46:53.651Z,17.70
2018-03-25T13:49:28.251Z,17.60
2018-03-25T13:52:02.398Z,18.60
2018-03-25T13:54:37.171Z,17.70
2018-03-25T13:57:11.037Z,17.70
2018-03-25T13:59:45.674Z,17.40
2018-03-25T14:02:23.482Z,17.50
2018-03-25T14:04:58.109Z,17.10
2018-03-25T14:07:33.477Z,16.80
2018-03-25T14:10:17.198Z,17.70
2018-03-25T14:13:18.130Z,15.60
2018-03-25T14:15:56.554Z,15.50
2018-03-25T14:18:31.692Z,16.00
2018-03-25T14:21:14.977Z,15.70
2018-03-25T14:23:53.797Z,16.30
2018-03-25T14:26:28.675Z,16.40
2018-03-25T14:29:09.442Z,14.80
2018-03-25T14:31:47.867Z,15.00
2018-03-25T14:34:24.948Z,15.30
2018-03-25T14:37:02.672Z,14.20
2018-03-25T14:39:55.719Z,14.20
2018-03-25T14:42:58.102Z,13.60
2018-03-25T14:46:02.043Z,13.50
2018-03-25T14:57:59.524Z,13.00
2018-03-25T15:13:37.893Z,12.70
2018-03-25T15:16:33.072Z,12.70
2018-03-25T15:28:44.824Z,12.40
2018-03-25T15:32:12.145Z,12.40
2018-03-25T15:34:46.079Z,12.10
2018-03-25T15:37:23.560Z,11.40
2018-03-25T15:43:16.428Z,11.70
2018-03-25T15:46:04.622Z,12.00
2018-03-25T15:48:38.431Z,11.90
2018-03-25T15:51:13.340Z,11.20
2018-03-25T15:53:48.833Z,11.30
2018-03-25T15:56:23.137Z,11.30
2018-03-25T15:59:02.256Z,11.20
2018-03-25T16:01:35.904Z,11.20
2018-03-25T16:04:09.946Z,11.00
2018-03-25T16:06:43.861Z,10.90
2018-03-25T16:09:17.619Z,10.90
2018-03-25T16:11:52.067Z,10.80
2018-03-25T16:14:25.996Z,10.80
2018-03-25T16:17:00.523Z,10.40
2018-03-25T16:19:34.236Z,10.40
2018-03-25T16:22:07.988Z,10.70
2018-03-25T16:24:41.810Z,10.90
2018-03-25T16:27:15.739Z,10.60
2018-03-25T16:29:49.398Z,10.30
2018-03-25T16:32:23.246Z,10.50
2018-03-25T16:35:16.564Z,10.40
2018-03-25T16:37:50.501Z,10.10
2018-03-25T16:40:25.673Z,10.30
2018-03-25T16:42:59.604Z,10.10
2018-03-25T16:45:33.565Z,10.20
2018-03-25T16:48:08.055Z,10.10
2018-03-25T16:50:43.290Z,10.00
2018-03-25T16:53:19.433Z,10.10
2018-03-25T16:55:54.230Z,10.10
2018-03-25T16:58:27.970Z,10.00
2018-03-25T17:01:02.996Z,10.00
2018-03-25T17:03:36.759Z,10.00
2018-03-25T17:06:12.084Z,10.20
2018-03-25T17:08:47.069Z,10.20
2018-03-25T17:11:21.030Z,10.10
2018-03-25T17:13:54.907Z,10.20
2018-03-25T17:16:28.663Z,10.00
2018-03-25T17:19:02.446Z,10.10
2018-03-25T17:21:36.270Z,10.00
2018-03-25T17:24:10.014Z,10.10
2018-03-25T17:26:43.816Z,9.80
2018-03-25T17:29:17.581Z,9.90
2018-03-25T17:31:52.081Z,10.00
2018-03-25T17:34:25.752Z,9.70
2018-03-25T17:37:01.045Z,9.70
2018-03-25T17:39:58.030Z,9.80
2018-03-25T17:42:31.594Z,9.50
2018-03-25T17:45:06.336Z,9.80
2018-03-25T17:47:41.514Z,9.70
2018-03-25T17:50:15.641Z,9.60
2018-03-25T17:52:49.555Z,9.60
2018-03-25T17:55:23.658Z,9.80
2018-03-25T17:57:58.781Z,9.50
2018-03-25T18:00:39.055Z,9.50
2018-03-25T18:03:15.355Z,9.40
2018-03-25T18:05:53.002Z,9.50
2018-03-25T18:08:28.054Z,9.50
2018-03-25T18:11:11.159Z,9.60
2018-03-25T18:14:28.687Z,9.40
2018-03-25T18:17:02.800Z,9.30
2018-03-25T18:19:36.792Z,9.10
2018-03-25T18:24:52.746Z,8.60
2018-03-25T18:27:27.999Z,8.50
2018-03-25T18:30:03.206Z,8.30
2018-03-25T18:32:38.560Z,8.20
2018-03-25T18:35:14.948Z,8.30
2018-03-25T18:37:49.101Z,8.20
2018-03-25T18:40:23.952Z,8.30
2018-03-25T18:42:58.095Z,8.10
2018-03-25T18:45:32.297Z,8.10
2018-03-25T18:48:09.032Z,8.00
2018-03-25T18:50:47.267Z,7.90
2018-03-25T18:53:27.173Z,7.90
2018-03-25T18:56:06.069Z,7.90
2018-03-25T18:58:40.191Z,7.90
2018-03-25T19:01:16.345Z,7.70
2018-03-25T19:04:16.067Z,7.70
2018-03-25T19:06:50.490Z,7.70
2018-03-25T19:09:33.480Z,7.40
2018-03-25T19:12:10.503Z,7.30
2018-03-25T19:14:49.421Z,7.30
2018-03-25T19:17:25.768Z,7.30
2018-03-25T19:20:01.029Z,7.40
2018-03-25T19:22:35.223Z,7.30
2018-03-25T19:25:10.231Z,7.20
2018-03-25T19:27:45.434Z,7.00
2018-03-25T19:30:31.615Z,7.00
2018-03-25T19:33:14.840Z,7.10
2018-03-25T19:35:49.950Z,7.00
2018-03-25T19:38:25.421Z,7.00
2018-03-25T19:40:59.811Z,7.10
2018-03-25T19:43:37.073Z,6.70
2018-03-25T19:46:11.679Z,6.60
2018-03-25T19:48:50.991Z,6.80
2018-03-25T19:51:25.253Z,6.70
2018-03-25T19:54:00.081Z,6.70
2018-03-25T19:56:36.146Z,6.70
2018-03-25T19:59:19.504Z,6.70
2018-03-25T20:01:56.036Z,6.70
2018-03-25T20:04:33.101Z,6.60
2018-03-25T20:07:10.485Z,6.60
2018-03-25T20:09:44.509Z,6.60
2018-03-25T20:12:19.975Z,6.50
2018-03-25T20:14:53.845Z,6.40
2018-03-25T20:17:27.982Z,6.40
2018-03-25T20:20:01.959Z,6.50
2018-03-25T20:22:36.032Z,6.40
2018-03-25T20:25:11.182Z,6.40
2018-03-25T20:27:45.460Z,6.40
2018-03-25T20:30:19.245Z,6.30
2018-03-25T20:32:55.160Z,6.30
2018-03-25T20:35:28.976Z,6.30
2018-03-25T20:38:04.148Z,6.20
2018-03-25T20:40:40.297Z,6.20
2018-03-25T20:43:14.038Z,6.10
2018-03-25T20:45:47.954Z,6.10
2018-03-25T20:48:22.659Z,6.10
2018-03-25T20:50:58.933Z,6.10
2018-03-25T20:53:32.771Z,6.10
2018-03-25T20:56:08.402Z,6.20
2018-03-25T20:58:42.270Z,6.20
2018-03-25T21:01:16.274Z,6.10
2018-03-25T21:03:51.564Z,6.20
2018-03-25T21:06:25.259Z,6.20
2018-03-25T21:08:59.134Z,6.40
2018-03-25T21:11:33.855Z,6.30
2018-03-25T21:14:07.673Z,6.30
2018-03-25T21:16:41.487Z,6.20
2018-03-25T21:19:16.043Z,6.10
2018-03-25T21:21:50.374Z,6.00
2018-03-25T21:24:27.355Z,5.90
2018-03-25T21:27:01.248Z,5.90
2018-03-25T21:29:35.804Z,5.60
2018-03-25T21:32:10.436Z,5.60
2018-03-25T21:34:44.255Z,5.20
2018-03-25T21:37:17.878Z,5.20
2018-03-25T21:39:51.675Z,4.90
2018-03-25T21:42:25.385Z,4.90
2018-03-25T21:44:59.890Z,4.80
2018-03-25T21:47:33.460Z,4.80
2018-03-25T21:50:07.167Z,4.80
2018-03-25T21:52:40.902Z,4.60
2018-03-25T21:55:15.452Z,4.50
2018-03-25T21:57:49.211Z,4.50
2018-03-25T22:00:23.070Z,4.60
2018-03-25T22:02:56.933Z,4.50
2018-03-25T22:05:30.730Z,4.60
2018-03-25T22:08:04.515Z,4.70
2018-03-25T22:10:39.017Z,4.40
2018-03-25T22:13:12.831Z,4.40
2018-03-25T22:15:46.655Z,4.30
2018-03-25T22:18:33.134Z,4.40
2018-03-25T22:21:06.847Z,4.40
2018-03-25T22:23:40.494Z,4.30
2018-03-25T22:26:14.147Z,4.40
2018-03-25T22:28:47.778Z,4.20
2018-03-25T22:31:21.681Z,4.20
2018-03-25T22:33:55.440Z,4.20
2018-03-25T22:36:29.157Z,4.10
2018-03-25T22:39:03.717Z,4.10
2018-03-25T22:41:37.560Z,4.10
2018-03-25T22:44:11.945Z,4.20
2018-03-25T22:46:46.600Z,4.30
2018-03-25T22:49:21.124Z,4.20
2018-03-25T22:51:54.964Z,4.20
2018-03-25T22:54:28.897Z,4.20
2018-03-25T22:57:02.774Z,4.00
2018-03-25T22:59:37.214Z,3.90
2018-03-25T23:02:10.886Z,3.80
2018-03-25T23:04:45.507Z,3.80
2018-03-25T23:07:19.647Z,3.80
2018-03-25T23:09:54.057Z,3.80
2018-03-25T23:12:28.470Z,3.80
2018-03-25T23:15:02.131Z,3.70
2018-03-25T23:17:35.967Z,4.00
2018-03-25T23:20:09.745Z,3.80
2018-03-25T23:22:43.466Z,3.80
2018-03-25T23:25:17.293Z,3.70
2018-03-25T23:27:51.710Z,3.50
2018-03-25T23:30:25.488Z,3.50
2018-03-25T23:32:59.912Z,3.50
2018-03-25T23:35:34.497Z,3.50
2018-03-25T23:38:08.870Z,3.40
2018-03-25T23:40:44.046Z,3.40
2018-03-25T23:43:18.055Z,3.40
2018-03-25T23:45:51.850Z,3.30
2018-03-25T23:48:26.414Z,3.30
2018-03-25T23:51:01.021Z,3.40
2018-03-25T23:53:34.838Z,3.40
2018-03-25T23:56:08.853Z,3.50
2018-03-25T23:58:42.734Z,3.40
